createdAt,value
2023-03-06T00:00:40.740Z,100311.41
2023-03-06T00:06:40.329Z,100273.81
2023-03-06T00:13:57.944Z,100495.03
2023-03-06T00:18:42.468Z,100344.78
2023-03-06T00:25:10.525Z,100483.34
2023-03-06T00:48:20.185Z,100544.88
2023-03-06T00:53:23.411Z,100300.09
2023-03-06T00:58:27.312Z,100304.13
2023-03-06T01:03:31.887Z,100431.97
2023-03-06T01:08:34.377Z,100459.44
2023-03-06T01:13:42.731Z,100516.13
2023-03-06T01:18:41.783Z,100381.13
2023-03-06T01:24:08.895Z,100526.53
2023-03-06T01:34:43.925Z,100300.28
2023-03-06T01:39:56.246Z,100314.69
2023-03-06T01:45:08.532Z,100311.16
2023-03-06T01:56:38.643Z,100487.03
2023-03-06T02:01:41.307Z,100313.09
2023-03-06T02:07:00.700Z,100470.47
2023-03-06T02:12:21.568Z,100461.25
2023-03-06T02:17:28.403Z,100249.09
2023-03-06T02:22:24.827Z,100312.84
2023-03-06T02:27:20.835Z,100388.09
2023-03-06T02:32:17.361Z,100319.81
2023-03-06T02:37:20.312Z,100525.53
2023-03-06T02:42:25.609Z,100310.88
2023-03-06T02:54:50.922Z,100322.28
2023-03-06T03:00:55.440Z,100452.56
2023-03-06T03:06:05.230Z,100495.59
2023-03-06T03:11:24.129Z,100376.91
2023-03-06T03:17:15.918Z,100308.59
2023-03-06T03:22:31.592Z,100262.97
2023-03-06T03:27:42.915Z,100316.44
2023-03-06T03:39:34.970Z,100520.22
2023-03-06T03:44:32.824Z,100438.97
2023-03-06T03:49:30.829Z,100413.59
2023-03-06T03:55:12.179Z,100541.19
2023-03-06T04:13:18.259Z,100486.59
2023-03-06T04:18:37.782Z,100501.00
2023-03-06T04:30:19.192Z,100339.47
2023-03-06T04:35:37.762Z,100339.34
2023-03-06T04:41:14.288Z,100403.38
2023-03-06T04:47:23.576Z,100370.72
2023-03-06T04:53:40.541Z,100279.06
2023-03-06T04:59:55.147Z,100572.63
2023-03-06T05:18:09.411Z,100397.25
2023-03-06T05:34:50.857Z,100425.75
2023-03-06T05:40:20.918Z,100624.72
2023-03-06T05:46:04.379Z,100344.72
2023-03-06T05:51:38.810Z,100655.16
2023-03-06T05:56:43.369Z,100421.06
2023-03-06T06:01:58.627Z,100578.53
2023-03-06T06:07:07.877Z,100426.81
2023-03-06T06:20:16.201Z,100655.38
2023-03-06T06:45:33.521Z,100565.75
2023-03-06T06:58:50.569Z,100723.59
2023-03-06T08:33:51.087Z,100847.66
2023-03-06T08:38:44.441Z,100845.53
2023-03-06T08:43:40.407Z,100778.63
2023-03-06T08:48:33.944Z,100816.34
2023-03-06T08:53:42.076Z,100746.81
2023-03-06T08:58:36.241Z,100731.00
2023-03-06T09:03:32.513Z,100855.19
2023-03-06T09:08:25.853Z,100828.28
2023-03-06T09:13:20.604Z,100767.50
2023-03-06T09:18:16.261Z,100766.47
2023-03-06T09:23:13.433Z,100793.97
2023-03-06T09:28:11.729Z,100750.25
2023-03-06T09:33:07.065Z,100782.78
2023-03-06T09:38:02.782Z,100696.94
2023-03-06T09:43:00.378Z,100828.47
2023-03-06T09:48:01.950Z,100781.25
2023-03-06T09:53:08.530Z,100827.53
2023-03-06T09:58:08.940Z,100825.88
2023-03-06T10:03:19.096Z,100850.09
2023-03-06T10:08:25.119Z,100761.06
2023-03-06T10:13:26.329Z,100750.09
2023-03-06T10:18:21.704Z,100781.94
2023-03-06T10:23:31.494Z,100680.97
2023-03-06T10:28:30.767Z,100710.94
2023-03-06T10:33:34.963Z,100786.28
2023-03-06T10:38:37.912Z,100751.94
2023-03-06T10:43:36.476Z,100794.47
2023-03-06T10:48:32.959Z,100701.41
2023-03-06T10:53:30.472Z,100763.91
2023-03-06T10:58:26.810Z,100730.03
2023-03-06T11:03:24.191Z,100680.25
2023-03-06T11:08:23.470Z,100664.53
2023-03-06T11:13:27.654Z,100758.97
2023-03-06T11:18:35.289Z,100747.78
2023-03-06T11:23:40.581Z,100661.75
2023-03-06T11:28:40.916Z,100595.66
2023-03-06T11:33:37.634Z,100743.25
2023-03-06T11:38:41.760Z,100696.53
2023-03-06T11:43:51.044Z,100611.97
2023-03-06T11:48:52.431Z,100717.88
2023-03-06T11:53:45.811Z,100650.47
2023-03-06T11:59:01.930Z,100613.59
2023-03-06T12:04:27.007Z,100710.81
2023-03-06T12:09:40.856Z,100712.66
2023-03-06T12:14:52.391Z,100662.72
2023-03-06T12:19:59.591Z,100706.34
2023-03-06T12:25:10.445Z,100629.50
2023-03-06T12:30:30.351Z,100644.78
2023-03-06T12:35:50.545Z,100689.25
2023-03-06T12:41:14.835Z,100693.81
2023-03-06T12:46:21.648Z,100590.88
2023-03-06T12:51:24.123Z,100599.56
2023-03-06T12:56:19.702Z,100624.44
2023-03-06T13:01:24.157Z,100670.06
2023-03-06T13:06:34.170Z,100653.19
2023-03-06T13:12:01.690Z,100667.00
2023-03-06T13:16:56.417Z,100612.81
2023-03-06T13:22:27.949Z,100661.78
2023-03-06T13:27:46.137Z,100654.78
2023-03-06T13:32:43.364Z,100563.06
2023-03-06T13:37:50.997Z,100649.78
2023-03-06T13:43:05.007Z,100648.19
2023-03-06T13:48:37.503Z,100504.19
2023-03-06T13:53:36.410Z,100509.66
2023-03-06T13:58:45.950Z,100581.06
2023-03-06T14:04:10.288Z,100628.25
2023-03-06T14:09:06.402Z,100617.97
2023-03-06T14:14:00.892Z,100589.72
2023-03-06T14:18:57.344Z,100609.44
2023-03-06T14:24:03.145Z,100608.13
2023-03-06T14:28:58.469Z,100476.84
2023-03-06T14:33:54.344Z,100440.41
2023-03-06T14:39:04.412Z,100626.63
2023-03-06T14:44:20.623Z,100618.28
2023-03-06T14:49:40.631Z,100441.19
2023-03-06T14:54:50.793Z,100557.72
2023-03-06T15:00:05.585Z,100555.31
2023-03-06T15:05:22.776Z,100604.97
2023-03-06T15:10:31.664Z,100609.53
2023-03-06T15:15:45.167Z,100515.94
2023-03-06T15:20:58.954Z,100603.47
2023-03-06T15:26:37.437Z,100435.97
2023-03-06T15:31:39.757Z,100390.75
2023-03-06T15:36:44.706Z,100543.75
2023-03-06T15:41:43.271Z,100416.19
2023-03-06T15:46:37.643Z,100590.00
2023-03-06T16:11:07.833Z,100461.81
2023-03-06T16:16:22.385Z,100602.75
2023-03-06T16:21:27.341Z,100604.00
2023-03-06T16:26:32.508Z,100514.44
2023-03-06T16:31:28.206Z,100539.09
2023-03-06T16:36:26.612Z,100568.03
2023-03-06T16:41:21.085Z,100552.41
2023-03-06T16:46:35.905Z,100610.19
2023-03-06T16:51:30.298Z,100601.66
2023-03-06T16:56:23.687Z,100634.31
2023-03-06T17:01:30.247Z,100594.75
2023-03-06T17:06:25.977Z,100487.19
2023-03-06T17:11:24.096Z,100608.69
2023-03-06T17:16:18.140Z,100541.50
2023-03-06T17:21:15.747Z,100607.66
2023-03-06T17:26:10.701Z,100561.47
2023-03-06T17:31:05.427Z,100484.66
2023-03-06T17:36:00.527Z,100593.75
2023-03-06T17:40:55.398Z,100540.59
2023-03-06T17:45:51.339Z,100561.00
2023-03-06T17:50:53.618Z,100645.75
2023-03-06T17:55:52.880Z,100603.50
2023-03-06T18:00:48.422Z,100528.09
2023-03-06T18:05:43.513Z,100495.50
2023-03-06T18:10:39.440Z,100655.84
2023-03-06T18:15:34.844Z,100656.56
2023-03-06T18:20:59.027Z,100613.88
2023-03-06T18:25:54.879Z,100596.59
2023-03-06T18:30:48.338Z,100470.06
2023-03-06T18:35:49.674Z,100484.00
2023-03-06T18:40:52.647Z,100509.47
2023-03-06T18:45:56.731Z,100659.00
2023-03-06T18:50:55.573Z,100658.75
2023-03-06T18:55:49.422Z,100613.38
2023-03-06T19:00:43.498Z,100653.09
2023-03-06T19:05:41.700Z,100634.25
2023-03-06T19:10:37.441Z,100649.31
2023-03-06T19:15:30.823Z,100569.34
2023-03-06T19:20:27.070Z,100531.97
2023-03-06T19:25:34.104Z,100583.16
2023-03-06T19:30:28.789Z,100602.72
2023-03-06T19:35:23.681Z,100497.75
2023-03-06T19:40:17.342Z,100540.13
2023-03-06T19:45:12.984Z,100583.44
2023-03-06T19:50:11.559Z,100649.66
2023-03-06T19:55:06.356Z,100631.41
2023-03-06T19:59:59.678Z,100615.28
2023-03-06T20:04:55.779Z,100576.72
2023-03-06T20:10:08.609Z,100523.56
2023-03-06T20:20:41.432Z,100500.69
2023-03-06T20:25:38.452Z,100563.00
2023-03-06T20:30:40.300Z,100402.22
2023-03-06T20:36:00.829Z,100439.72
2023-03-06T20:42:07.210Z,100600.22
2023-03-06T20:47:05.608Z,100560.53
2023-03-06T20:51:58.916Z,100511.53
2023-03-06T20:56:52.419Z,100431.13
2023-03-06T21:01:48.150Z,100585.84
2023-03-06T21:06:47.138Z,100402.72
2023-03-06T21:11:40.434Z,100380.47
2023-03-06T21:16:33.909Z,100428.63
2023-03-06T21:21:32.949Z,100502.47
2023-03-06T21:26:30.491Z,100416.56
2023-03-06T21:31:23.964Z,100455.97
2023-03-06T21:36:18.515Z,100458.63
2023-03-06T21:41:13.414Z,100398.38
2023-03-06T21:46:09.064Z,100550.59
2023-03-06T21:51:07.797Z,100395.69
2023-03-06T21:56:04.071Z,100495.47
2023-03-06T22:00:57.515Z,100554.31
2023-03-06T22:05:53.232Z,100419.75
2023-03-06T22:10:48.507Z,100506.75
2023-03-06T22:15:49.734Z,100508.78
2023-03-06T22:20:43.081Z,100497.09
2023-03-06T22:25:37.854Z,100388.78
2023-03-06T22:30:31.100Z,100545.88
2023-03-06T22:35:36.142Z,100549.53
2023-03-06T22:40:29.628Z,100545.13
2023-03-06T22:45:42.759Z,100451.88
2023-03-06T22:50:39.050Z,100407.25
2023-03-06T22:55:32.263Z,100535.31
2023-03-06T23:00:30.465Z,100366.47
2023-03-06T23:05:27.900Z,100467.41
2023-03-06T23:10:22.567Z,100403.97
2023-03-06T23:15:38.246Z,100477.75
2023-03-06T23:20:50.327Z,100383.56
2023-03-06T23:26:02.278Z,100528.72
2023-03-06T23:30:57.019Z,100535.75
2023-03-06T23:35:52.225Z,100399.16
2023-03-06T23:40:45.442Z,100345.38
2023-03-06T23:45:40.932Z,100342.03
2023-03-06T23:51:03.323Z,100328.94
2023-03-06T23:55:56.490Z,100424.66
